Time;durP1;ratioP1;P1;durP2;ratioP2;P2;SDS_P1;SDS_P2;PMS_P1;PMS_P2;Temp;Humidity;BMP_temperature;BMP_pressure;BME280_temperature;BME280_humidity;BME280_pressure;Samples;Min_cycle;Max_cycle;Signal;HPM_P1;HPM_P2
2022/08/04 00:00:00;;;;;;;5.20;2.28;;;24.40;99.90;;;;;;2067714;28;20049;-69
2022/08/04 00:01:11;;;;;;;6.38;2.60;;;24.40;99.90;;;;;;2074307;28;20026;-69
2022/08/04 00:02:21;;;;;;;4.95;2.50;;;24.40;99.90;;;;;;2073441;28;20026;-69
2022/08/04 00:03:25;;;;;;;5.28;2.22;;;24.40;99.90;;;;;;2080653;28;20112;-69
2022/08/04 00:04:40;;;;;;;5.47;2.22;;;24.40;99.90;;;;;;2079225;28;20651;-69
2022/08/04 00:06:11;;;;;;;4.97;2.00;;;24.30;99.90;;;;;;2073934;28;20085;-69
2022/08/04 00:07:34;;;;;;;8.35;3.00;;;24.30;99.90;;;;;;2073318;28;20025;-69
2022/08/04 00:08:45;;;;;;;7.15;2.50;;;24.30;99.90;;;;;;2075158;28;20018;-69
2022/08/04 00:09:58;;;;;;;6.05;2.05;;;24.20;99.90;;;;;;2071943;28;20029;-69
2022/08/04 00:11:00;;;;;;;5.18;2.28;;;24.20;99.90;;;;;;2073053;28;20022;-70
2022/08/04 00:12:04;;;;;;;5.13;2.40;;;24.20;99.90;;;;;;2073654;28;20018;-69
2022/08/04 00:13:07;;;;;;;6.78;2.65;;;24.20;99.90;;;;;;2072855;28;20014;-70
2022/08/04 00:14:13;;;;;;;8.13;2.53;;;24.20;99.90;;;;;;2072699;28;20504;-70
2022/08/04 00:15:15;;;;;;;6.07;2.30;;;24.10;99.90;;;;;;2075838;28;20021;-70
2022/08/04 00:16:16;;;;;;;4.63;2.35;;;24.10;99.90;;;;;;2071399;28;20022;-70
2022/08/04 00:17:22;;;;;;;6.28;2.40;;;24.10;99.90;;;;;;2073710;28;20040;-70
2022/08/04 00:18:28;;;;;;;6.38;3.13;;;24.10;99.90;;;;;;2073407;28;20021;-70
2022/08/04 00:19:34;;;;;;;7.53;2.25;;;24.10;99.90;;;;;;2074878;28;20512;-70
2022/08/04 00:20:41;;;;;;;4.68;2.28;;;24.10;99.90;;;;;;2071885;28;20034;-70
2022/08/04 00:21:47;;;;;;;5.35;2.22;;;24.10;99.90;;;;;;2073259;28;20603;-70
2022/08/04 00:22:50;;;;;;;22.77;2.90;;;24.10;99.90;;;;;;2073100;28;20121;-70
2022/08/04 00:23:54;;;;;;;8.35;2.80;;;24.10;99.90;;;;;;2073899;28;20109;-70
2022/08/04 00:24:56;;;;;;;6.18;2.40;;;24.00;99.90;;;;;;2074246;28;20425;-70
2022/08/04 00:25:57;;;;;;;2.92;2.35;;;24.00;99.90;;;;;;2073414;28;20135;-70
2022/08/04 00:26:58;;;;;;;7.32;2.60;;;24.00;99.90;;;;;;2073216;28;20124;-70
2022/08/04 00:28:00;;;;;;;6.55;2.75;;;24.00;99.90;;;;;;2075234;28;20076;-70
2022/08/04 00:29:01;;;;;;;7.22;2.70;;;24.00;99.90;;;;;;2073468;28;20489;-70
2022/08/04 00:30:04;;;;;;;6.45;2.55;;;24.00;99.90;;;;;;2073795;28;20382;-70
2022/08/04 00:31:08;;;;;;;5.80;2.50;;;23.90;99.90;;;;;;2073406;28;20026;-70
2022/08/04 00:32:08;;;;;;;5.32;2.40;;;23.90;99.90;;;;;;2073456;28;20013;-70
2022/08/04 00:33:09;;;;;;;5.28;2.95;;;23.90;99.90;;;;;;2076893;28;20026;-70
2022/08/04 00:34:12;;;;;;;5.15;2.40;;;23.90;99.90;;;;;;2073981;28;20132;-70
2022/08/04 00:35:14;;;;;;;5.20;2.50;;;23.90;99.90;;;;;;2074385;28;20463;-71
2022/08/04 00:36:16;;;;;;;5.22;2.97;;;23.80;99.90;;;;;;2074774;28;20378;-70
2022/08/04 00:37:20;;;;;;;5.65;2.42;;;23.80;99.90;;;;;;2072657;28;20038;-70
2022/08/04 00:38:21;;;;;;;5.20;2.28;;;23.80;99.90;;;;;;2074073;28;20512;-70
2022/08/04 00:39:22;;;;;;;7.03;2.92;;;23.80;99.90;;;;;;2073735;28;20386;-70
2022/08/04 00:40:29;;;;;;;3.70;1.95;;;23.80;99.90;;;;;;2074608;28;20044;-70
2022/08/04 00:41:51;;;;;;;7.88;2.72;;;23.80;99.90;;;;;;2075733;28;20079;-70
2022/08/04 00:43:05;;;;;;;5.38;2.55;;;23.80;99.90;;;;;;2075205;28;20022;-70
2022/08/04 00:44:05;;;;;;;6.47;2.75;;;23.70;99.90;;;;;;2074780;28;20041;-70
2022/08/04 00:45:21;;;;;;;5.68;2.55;;;23.70;99.90;;;;;;2073263;28;20024;-70
2022/08/04 00:46:52;;;;;;;12.73;2.92;;;23.70;99.90;;;;;;2076741;28;20017;-70
2022/08/04 00:48:20;;;;;;;10.05;2.60;;;23.60;99.90;;;;;;2076257;28;20022;-70
2022/08/04 00:49:45;;;;;;;5.50;2.33;;;23.60;99.90;;;;;;2074822;28;20026;-70
2022/08/04 00:51:15;;;;;;;10.48;2.40;;;23.60;99.90;;;;;;2075217;28;20782;-70
2022/08/04 00:52:30;;;;;;;8.05;2.67;;;23.60;99.90;;;;;;2074454;28;20044;-70
2022/08/04 00:53:37;;;;;;;12.65;3.53;;;23.60;99.90;;;;;;2071565;28;20025;-70
2022/08/04 00:54:46;;;;;;;11.07;3.05;;;23.60;99.90;;;;;;2071104;28;20080;-70
2022/08/04 00:56:21;;;;;;;10.82;3.03;;;23.60;99.90;;;;;;2073514;28;20539;-70
2022/08/04 00:58:03;;;;;;;6.47;2.50;;;23.60;99.90;;;;;;2073890;28;20085;-70
2022/08/04 00:59:19;;;;;;;4.30;2.17;;;23.60;99.90;;;;;;2061474;28;20511;-70
2022/08/04 01:00:20;;;;;;;9.20;2.20;;;23.60;99.90;;;;;;2076557;28;20013;-70
2022/08/04 01:01:39;;;;;;;8.60;2.40;;;23.60;99.90;;;;;;2073541;28;20025;-70
2022/08/04 01:02:53;;;;;;;5.27;2.30;;;23.60;99.90;;;;;;2072747;28;20026;-70
2022/08/04 01:04:14;;;;;;;12.73;2.78;;;23.60;99.90;;;;;;2073595;28;20267;-70
2022/08/04 01:05:25;;;;;;;7.70;2.60;;;23.60;99.90;;;;;;2074168;28;20116;-70
2022/08/04 01:06:43;;;;;;;7.10;2.42;;;23.60;99.90;;;;;;2073246;28;20022;-70
2022/08/04 01:08:02;;;;;;;5.72;2.33;;;23.60;99.90;;;;;;2071717;28;20107;-70
2022/08/04 01:09:08;;;;;;;5.97;2.78;;;23.60;99.90;;;;;;2072517;28;20036;-70
2022/08/04 01:10:39;;;;;;;6.35;2.38;;;23.60;99.90;;;;;;2072224;28;20397;-70
2022/08/04 01:12:03;;;;;;;9.18;2.42;;;23.60;99.90;;;;;;2073142;28;20072;-70
2022/08/04 01:13:25;;;;;;;8.00;2.70;;;23.60;99.90;;;;;;2072157;28;20028;-70
2022/08/04 01:14:34;;;;;;;6.63;2.60;;;23.50;99.90;;;;;;2073278;28;20401;-70
2022/08/04 01:16:04;;;;;;;8.93;2.97;;;23.50;99.90;;;;;;2075557;28;20022;-70
2022/08/04 01:17:24;;;;;;;7.72;2.75;;;23.60;99.90;;;;;;2073274;28;20017;-70
2022/08/04 01:18:59;;;;;;;11.13;2.63;;;23.50;99.90;;;;;;2071951;28;20026;-70
2022/08/04 01:20:06;;;;;;;9.85;2.97;;;23.50;99.90;;;;;;2072675;28;20017;-70
2022/08/04 01:21:28;;;;;;;7.28;2.90;;;23.50;99.90;;;;;;2073477;28;20376;-70
2022/08/04 01:22:31;;;;;;;15.60;3.00;;;23.50;99.90;;;;;;2074507;28;20104;-70
2022/08/04 01:23:39;;;;;;;7.32;2.60;;;23.50;99.90;;;;;;2071762;28;20057;-70
2022/08/04 01:25:09;;;;;;;7.05;2.40;;;23.50;99.90;;;;;;2072502;28;20053;-70
2022/08/04 01:26:31;;;;;;;7.72;2.80;;;23.50;99.90;;;;;;2074420;28;20084;-70
2022/08/04 01:28:09;;;;;;;10.50;3.15;;;23.50;99.90;;;;;;2074443;28;20096;-70
2022/08/04 01:29:12;;;;;;;9.35;3.00;;;23.50;99.90;;;;;;2073120;28;20036;-70
2022/08/04 01:30:13;;;;;;;4.97;2.85;;;23.50;99.90;;;;;;2075147;28;20021;-70
2022/08/04 01:31:19;;;;;;;6.15;2.50;;;23.50;99.90;;;;;;2074661;28;20033;-70
2022/08/04 01:32:46;;;;;;;6.60;2.40;;;23.50;99.90;;;;;;2081694;28;20128;-70
2022/08/04 01:33:49;;;;;;;9.35;2.63;;;23.50;99.90;;;;;;2076896;28;20032;-70
2022/08/04 01:34:59;;;;;;;6.97;2.70;;;23.50;99.90;;;;;;2071964;28;20022;-70
2022/08/04 01:36:05;;;;;;;4.85;2.20;;;23.50;99.90;;;;;;2071324;28;20414;-70
2022/08/04 01:37:14;;;;;;;9.95;2.75;;;23.50;99.90;;;;;;2071916;28;20025;-70
2022/08/04 01:38:23;;;;;;;6.90;2.17;;;23.50;99.90;;;;;;2073478;28;20029;-70
2022/08/04 01:39:41;;;;;;;9.43;2.72;;;23.50;99.90;;;;;;2072803;28;20096;-70
2022/08/04 01:40:43;;;;;;;7.88;3.00;;;23.50;99.90;;;;;;2073485;28;20018;-70
2022/08/04 01:41:43;;;;;;;7.40;3.08;;;23.50;99.90;;;;;;2072848;28;20022;-70
2022/08/04 01:42:45;;;;;;;7.70;2.55;;;23.50;99.90;;;;;;2072849;28;20028;-70
2022/08/04 01:43:46;;;;;;;5.05;2.00;;;23.50;99.90;;;;;;2076190;28;20100;-70
2022/08/04 01:44:48;;;;;;;7.70;2.65;;;23.50;99.90;;;;;;2072398;28;20022;-70
2022/08/04 01:45:55;;;;;;;8.07;2.72;;;23.40;99.90;;;;;;2072967;28;20022;-70
2022/08/04 01:46:56;;;;;;;10.52;3.30;;;23.50;99.90;;;;;;2074184;28;20018;-70
2022/08/04 01:47:57;;;;;;;7.38;2.58;;;23.40;99.90;;;;;;2070764;28;20528;-70
2022/08/04 01:48:59;;;;;;;7.72;2.45;;;23.50;99.90;;;;;;2074223;28;20022;-70
2022/08/04 01:50:06;;;;;;;9.38;3.13;;;23.40;99.90;;;;;;2076076;28;20036;-70
2022/08/04 01:51:08;;;;;;;6.38;2.47;;;23.40;99.90;;;;;;2073379;28;20033;-70
2022/08/04 01:52:09;;;;;;;9.63;2.67;;;23.40;99.90;;;;;;2075103;28;20026;-70
2022/08/04 01:53:10;;;;;;;8.75;2.58;;;23.40;99.90;;;;;;2072826;28;20463;-70
2022/08/04 01:54:14;;;;;;;8.02;2.63;;;23.40;99.90;;;;;;2074868;28;20021;-70
2022/08/04 01:55:16;;;;;;;11.27;3.03;;;23.40;99.90;;;;;;2073751;28;20462;-70
2022/08/04 01:56:19;;;;;;;6.63;2.38;;;23.40;99.90;;;;;;2075029;28;20025;-70
2022/08/04 01:57:23;;;;;;;10.48;3.08;;;23.40;99.90;;;;;;2071785;28;20026;-70
2022/08/04 01:58:27;;;;;;;7.72;2.70;;;23.40;99.90;;;;;;2077416;28;20096;-70
2022/08/04 01:59:30;;;;;;;7.30;3.30;;;23.40;99.90;;;;;;2073060;28;20032;-70
2022/08/04 02:00:31;;;;;;;11.52;3.10;;;23.40;99.90;;;;;;2072643;28;20021;-70
2022/08/04 02:01:35;;;;;;;10.63;3.03;;;23.40;99.90;;;;;;2075077;28;20164;-70
2022/08/04 02:02:36;;;;;;;8.50;2.90;;;23.40;99.90;;;;;;2073237;28;20040;-70
2022/08/04 02:03:42;;;;;;;11.98;3.53;;;23.40;99.90;;;;;;2073696;28;20025;-70
2022/08/04 02:04:46;;;;;;;5.97;2.10;;;23.40;99.90;;;;;;2073825;28;20029;-70
2022/08/04 02:05:49;;;;;;;7.78;3.17;;;23.40;99.90;;;;;;2075386;28;20494;-70
2022/08/04 02:07:02;;;;;;;9.20;2.78;;;23.40;99.90;;;;;;2073696;28;20029;-70
2022/08/04 02:08:21;;;;;;;7.95;3.00;;;23.40;99.90;;;;;;2073346;28;20037;-70
2022/08/04 02:09:27;;;;;;;7.40;2.97;;;23.40;99.90;;;;;;2072354;28;20017;-70
2022/08/04 02:10:49;;;;;;;7.88;2.75;;;23.40;99.90;;;;;;2073849;28;20021;-70
2022/08/04 02:12:05;;;;;;;8.13;2.47;;;23.40;99.90;;;;;;2074477;28;20076;-70
2022/08/04 02:13:48;;;;;;;9.73;2.88;;;23.40;99.90;;;;;;2072430;28;20167;-70
2022/08/04 02:15:01;;;;;;;8.82;2.63;;;23.40;99.90;;;;;;2051742;28;20376;-70
2022/08/04 02:16:31;;;;;;;11.07;2.40;;;23.40;99.90;;;;;;2072992;28;20053;-70
2022/08/04 02:17:42;;;;;;;9.65;2.58;;;23.40;99.90;;;;;;2057547;28;20066;-70
2022/08/04 02:19:09;;;;;;;9.50;2.60;;;23.40;99.90;;;;;;2071022;28;20046;-70
2022/08/04 02:20:31;;;;;;;8.32;2.63;;;23.50;99.90;;;;;;2076258;28;20377;-70
2022/08/04 02:21:34;;;;;;;7.95;2.88;;;23.50;99.90;;;;;;2074354;28;20068;-70
2022/08/04 02:22:44;;;;;;;11.13;3.33;;;23.50;99.90;;;;;;2078274;28;20122;-70
2022/08/04 02:23:52;;;;;;;8.85;2.92;;;23.50;99.90;;;;;;2072492;28;20026;-70
2022/08/04 02:25:10;;;;;;;6.43;2.42;;;23.50;99.90;;;;;;2070503;28;20064;-70
2022/08/04 02:26:17;;;;;;;7.85;2.63;;;23.50;99.90;;;;;;2070969;28;20121;-70
2022/08/04 02:27:24;;;;;;;11.73;2.67;;;23.50;99.90;;;;;;2070807;28;20029;-70
2022/08/04 02:29:02;;;;;;;9.50;2.55;;;23.60;99.90;;;;;;2074829;28;20540;-70
2022/08/04 02:30:04;;;;;;;8.15;3.00;;;23.60;99.90;;;;;;2076163;28;20026;-70
2022/08/04 02:31:18;;;;;;;10.02;2.95;;;23.50;99.90;;;;;;2073831;28;20044;-70
2022/08/04 02:32:25;;;;;;;7.13;2.95;;;23.60;99.90;;;;;;2072151;28;20108;-70
2022/08/04 02:33:35;;;;;;;9.85;2.70;;;23.60;99.90;;;;;;2071099;28;20038;-70
2022/08/04 02:34:52;;;;;;;11.50;2.80;;;23.60;99.90;;;;;;2074907;28;20478;-70
2022/08/04 02:35:59;;;;;;;12.55;2.95;;;23.60;99.90;;;;;;2075662;28;20257;-70
2022/08/04 02:37:03;;;;;;;5.55;2.58;;;23.60;99.90;;;;;;2075304;28;20022;-70
2022/08/04 02:38:15;;;;;;;12.95;3.00;;;23.60;99.90;;;;;;2073378;28;20072;-70
2022/08/04 02:39:19;;;;;;;9.48;3.00;;;23.60;99.90;;;;;;2077529;28;20022;-70
2022/08/04 02:40:23;;;;;;;6.43;2.47;;;23.60;99.90;;;;;;2074838;28;20028;-70
2022/08/04 02:41:26;;;;;;;9.13;2.65;;;23.60;99.90;;;;;;2075288;28;20022;-70
2022/08/04 02:42:28;;;;;;;11.32;2.78;;;23.60;99.90;;;;;;2076297;28;20129;-70
2022/08/04 02:43:34;;;;;;;9.18;2.70;;;23.70;99.90;;;;;;2077064;28;20053;-70
2022/08/04 02:44:40;;;;;;;5.95;2.25;;;23.70;99.90;;;;;;2075935;28;20014;-70
2022/08/04 02:45:42;;;;;;;8.32;2.80;;;23.70;99.90;;;;;;2074624;28;20025;-70
2022/08/04 02:46:43;;;;;;;6.30;2.42;;;23.70;99.90;;;;;;2076200;28;20021;-70
2022/08/04 02:47:46;;;;;;;8.07;2.60;;;23.70;99.90;;;;;;2074483;28;20029;-70
2022/08/04 02:48:49;;;;;;;6.32;2.53;;;23.70;99.90;;;;;;2073970;28;20028;-70
2022/08/04 02:49:52;;;;;;;12.88;3.30;;;23.70;99.90;;;;;;2073598;28;20014;-70
2022/08/04 02:50:54;;;;;;;8.48;2.80;;;23.70;99.90;;;;;;2074624;28;20080;-70
2022/08/04 02:51:57;;;;;;;8.25;2.55;;;23.70;99.90;;;;;;2076478;28;20053;-70
2022/08/04 02:53:01;;;;;;;8.15;2.55;;;23.70;99.90;;;;;;2075484;28;20229;-70
2022/08/04 02:54:04;;;;;;;10.02;2.58;;;23.70;99.90;;;;;;2077113;28;20549;-70
2022/08/04 02:55:09;;;;;;;4.72;2.13;;;23.70;99.90;;;;;;2072594;28;20026;-70
2022/08/04 02:56:11;;;;;;;5.50;2.60;;;23.70;99.90;;;;;;2075100;28;20021;-70
2022/08/04 02:57:13;;;;;;;7.13;2.60;;;23.60;99.90;;;;;;2074320;28;20030;-70
2022/08/04 02:58:19;;;;;;;5.28;1.85;;;23.60;99.90;;;;;;2072541;28;20026;-70
2022/08/04 02:59:26;;;;;;;5.95;2.30;;;23.60;99.90;;;;;;2072775;28;20707;-70
2022/08/04 03:00:27;;;;;;;6.85;2.45;;;23.60;99.90;;;;;;2076245;28;20075;-70
2022/08/04 03:01:29;;;;;;;6.85;2.78;;;23.60;99.90;;;;;;2075740;28;20408;-70
2022/08/04 03:02:54;;;;;;;5.00;2.60;;;23.60;99.90;;;;;;2076569;28;20389;-70
2022/08/04 03:04:13;;;;;;;8.50;2.72;;;23.60;99.90;;;;;;2074562;28;20041;-70
2022/08/04 03:05:20;;;;;;;6.80;2.70;;;23.60;99.90;;;;;;2072839;28;20023;-70
2022/08/04 03:07:02;;;;;;;6.30;2.50;;;23.60;99.90;;;;;;2073960;28;20392;-70
2022/08/04 03:08:47;;;;;;;7.07;2.38;;;23.50;99.90;;;;;;2049916;28;20046;-70
2022/08/04 03:10:20;;;;;;;6.38;2.35;;;23.50;99.90;;;;;;2074294;28;20369;-70
2022/08/04 03:11:31;;;;;;;7.82;2.40;;;23.40;99.90;;;;;;2074717;28;20384;-70
2022/08/04 03:13:02;;;;;;;5.70;2.47;;;23.40;99.90;;;;;;2074002;28;20018;-70
2022/08/04 03:14:25;;;;;;;4.95;2.50;;;23.40;99.90;;;;;;2073443;28;20029;-70
2022/08/04 03:15:34;;;;;;;5.88;2.53;;;23.30;99.90;;;;;;2072502;28;20018;-70
2022/08/04 03:16:54;;;;;;;6.72;2.50;;;23.40;99.90;;;;;;2072937;28;20053;-70
2022/08/04 03:18:09;;;;;;;8.13;2.67;;;23.30;99.90;;;;;;2076302;28;20022;-70
2022/08/04 03:19:10;;;;;;;5.53;2.40;;;23.30;99.90;;;;;;2077700;28;20096;-70
2022/08/04 03:20:44;;;;;;;7.70;2.88;;;23.20;99.90;;;;;;2075206;28;20030;-70
2022/08/04 03:22:11;;;;;;;6.07;2.42;;;23.20;99.90;;;;;;2074099;28;20065;-70
2022/08/04 03:23:24;;;;;;;9.13;2.53;;;23.20;99.90;;;;;;2072542;28;20041;-70
2022/08/04 03:24:52;;;;;;;6.13;2.28;;;23.20;99.90;;;;;;2071678;28;20115;-70
2022/08/04 03:26:31;;;;;;;5.90;2.65;;;23.20;99.90;;;;;;2084022;28;20048;-70
2022/08/04 03:27:49;;;;;;;8.30;2.95;;;23.10;99.90;;;;;;2078139;28;20030;-70
2022/08/04 03:28:50;;;;;;;7.55;2.60;;;23.10;99.90;;;;;;2073827;28;20049;-70
2022/08/04 03:29:59;;;;;;;8.60;2.30;;;23.10;99.90;;;;;;2075558;28;20024;-70
2022/08/04 03:31:22;;;;;;;5.32;2.63;;;23.00;99.90;;;;;;2073770;28;20096;-70
2022/08/04 03:32:40;;;;;;;6.10;2.00;;;23.00;99.90;;;;;;2072754;28;20052;-70
2022/08/04 03:33:50;;;;;;;7.57;3.78;;;23.00;99.90;;;;;;2075955;28;20087;-70
2022/08/04 03:35:02;;;;;;;6.05;2.65;;;23.00;99.90;;;;;;2073163;28;20145;-70
2022/08/04 03:36:36;;;;;;;4.63;2.30;;;23.00;99.90;;;;;;2075522;28;20034;-70
2022/08/04 03:37:43;;;;;;;7.10;2.40;;;22.90;99.90;;;;;;2072858;28;20026;-70
2022/08/04 03:39:18;;;;;;;4.93;2.50;;;22.90;99.90;;;;;;2074288;28;20052;-70
2022/08/04 03:40:47;;;;;;;5.43;2.42;;;22.90;99.90;;;;;;2075102;28;20018;-70
2022/08/04 03:42:19;;;;;;;4.68;2.72;;;22.90;99.90;;;;;;2072849;28;20100;-71
2022/08/04 03:43:51;;;;;;;7.03;2.65;;;22.90;99.90;;;;;;2076434;28;20100;-70
2022/08/04 03:44:57;;;;;;;7.60;2.63;;;22.80;99.90;;;;;;2075981;28;20108;-70
2022/08/04 03:46:16;;;;;;;4.22;2.40;;;22.80;99.90;;;;;;2073414;28;20061;-70
2022/08/04 03:47:20;;;;;;;5.65;2.72;;;22.70;99.90;;;;;;2074056;28;20030;-70
2022/08/04 03:48:58;;;;;;;5.32;2.40;;;22.70;99.90;;;;;;2073795;28;20068;-70
2022/08/04 03:50:36;;;;;;;4.28;2.42;;;22.80;99.90;;;;;;2073114;28;20026;-70
2022/08/04 03:53:35;;;;;;;6.68;2.50;;;22.60;99.90;;;;;;2073694;28;20105;-70
2022/08/04 03:54:54;;;;;;;7.22;2.85;;;22.60;99.90;;;;;;2073741;28;20024;-70
2022/08/04 03:56:12;;;;;;;10.40;3.20;;;22.60;99.90;;;;;;2072828;28;20076;-70
2022/08/04 03:57:38;;;;;;;7.07;2.60;;;22.60;99.90;;;;;;2075095;28;20105;-70
2022/08/04 03:58:58;;;;;;;4.70;2.75;;;22.60;99.90;;;;;;2073759;28;20110;-70
2022/08/04 04:00:21;;;;;;;3.90;2.13;;;22.50;99.90;;;;;;2073899;28;20500;-70
2022/08/04 04:02:00;;;;;;;4.40;2.33;;;22.50;99.90;;;;;;2074242;28;20096;-70
2022/08/04 04:03:23;;;;;;;9.50;2.88;;;22.50;99.90;;;;;;2067573;28;20038;-70
2022/08/04 04:04:55;;;;;;;4.18;2.42;;;22.50;99.90;;;;;;2073639;28;20075;-70
2022/08/04 04:06:15;;;;;;;6.25;2.35;;;22.40;99.90;;;;;;2074877;28;20026;-70
2022/08/04 04:07:30;;;;;;;6.45;2.72;;;22.40;99.90;;;;;;2073965;28;20083;-70
2022/08/04 04:08:33;;;;;;;4.28;2.67;;;22.40;99.90;;;;;;2073569;28;20022;-70
2022/08/04 04:10:02;;;;;;;5.45;2.85;;;22.40;99.90;;;;;;2074432;28;20021;-70
2022/08/04 04:11:15;;;;;;;4.93;2.67;;;22.40;99.90;;;;;;2073513;28;20347;-71
2022/08/04 04:12:37;;;;;;;4.43;2.38;;;22.30;99.90;;;;;;2074131;28;20021;-70
2022/08/04 04:13:44;;;;;;;5.32;2.42;;;22.40;99.90;;;;;;2072500;28;20377;-70
2022/08/04 04:15:06;;;;;;;7.35;2.22;;;22.30;99.90;;;;;;2073537;28;20470;-70
2022/08/04 04:16:36;;;;;;;5.00;2.33;;;22.30;99.90;;;;;;2073793;28;20180;-70
2022/08/04 04:18:02;;;;;;;4.88;2.30;;;22.30;99.90;;;;;;2076409;28;20022;-70
2022/08/04 04:19:14;;;;;;;4.35;2.03;;;22.30;99.90;;;;;;2077097;28;20026;-70
2022/08/04 04:20:53;;;;;;;4.90;2.40;;;22.20;99.90;;;;;;2073532;28;20507;-70
2022/08/04 04:22:13;;;;;;;6.05;2.38;;;22.20;99.90;;;;;;2073559;28;20049;-70
2022/08/04 04:23:35;;;;;;;3.70;2.47;;;22.20;99.90;;;;;;2074580;28;20033;-70
2022/08/04 04:24:46;;;;;;;7.50;3.30;;;22.20;99.90;;;;;;2072395;28;20045;-70
2022/08/04 04:26:05;;;;;;;8.48;2.92;;;22.20;99.90;;;;;;2073839;28;20033;-70
2022/08/04 04:27:29;;;;;;;5.70;2.75;;;22.20;99.90;;;;;;2075367;28;20116;-70
2022/08/04 04:29:03;;;;;;;6.95;2.58;;;22.20;99.90;;;;;;2071338;28;20433;-70
2022/08/04 04:30:11;;;;;;;4.47;2.13;;;22.10;99.90;;;;;;2073123;28;20371;-70
2022/08/04 04:31:42;;;;;;;3.60;2.50;;;22.20;99.90;;;;;;2073753;28;20032;-70
2022/08/04 04:32:51;;;;;;;6.13;2.50;;;22.10;99.90;;;;;;2075025;28;20113;-70
2022/08/04 04:34:07;;;;;;;3.67;2.40;;;22.10;99.90;;;;;;2072996;28;20110;-70
2022/08/04 04:35:26;;;;;;;5.78;2.45;;;22.10;99.90;;;;;;2075586;28;20026;-70
2022/08/04 04:36:32;;;;;;;5.45;2.90;;;22.20;99.90;;;;;;2071930;28;20469;-70
2022/08/04 04:37:46;;;;;;;3.92;2.47;;;22.10;99.90;;;;;;2074944;28;20069;-70
2022/08/04 04:39:23;;;;;;;7.00;3.13;;;22.10;99.90;;;;;;2072702;28;20030;-70
2022/08/04 04:41:00;;;;;;;6.70;3.17;;;22.10;99.90;;;;;;2075480;28;20060;-70
2022/08/04 04:42:12;;;;;;;6.38;2.92;;;22.10;99.90;;;;;;2074177;28;20478;-70
2022/08/04 04:43:22;;;;;;;4.47;2.40;;;22.10;99.90;;;;;;2071833;28;20124;-70
2022/08/04 04:44:22;;;;;;;;;;;22.10;99.90;;;;;;2073466;28;20017;-70
2022/08/04 04:45:48;;;;;;;5.60;2.58;;;22.00;99.90;;;;;;2075953;28;19956;-70
2022/08/04 04:46:54;;;;;;;5.68;2.60;;;22.10;99.90;;;;;;2073187;28;20025;-70
2022/08/04 04:48:26;;;;;;;6.63;3.08;;;22.10;99.90;;;;;;2073173;28;20025;-70
2022/08/04 04:49:53;;;;;;;5.75;2.80;;;22.10;99.90;;;;;;2074934;28;20022;-70
2022/08/04 04:50:59;;;;;;;6.78;2.90;;;22.10;99.90;;;;;;2073619;28;20025;-70
2022/08/04 04:52:14;;;;;;;6.63;2.63;;;22.10;99.90;;;;;;2075423;28;20028;-70
2022/08/04 04:53:39;;;;;;;6.75;3.30;;;22.10;99.90;;;;;;2075557;28;20024;-70
2022/08/04 04:54:56;;;;;;;5.10;2.72;;;22.20;99.90;;;;;;2079323;28;20097;-70
2022/08/04 04:56:10;;;;;;;5.50;2.90;;;22.10;99.90;;;;;;2079371;28;20066;-70
2022/08/04 04:57:20;;;;;;;5.40;3.40;;;22.10;99.90;;;;;;2077548;28;20013;-70
2022/08/04 04:58:22;;;;;;;7.93;3.20;;;22.10;99.90;;;;;;2075326;28;20376;-70
2022/08/04 04:59:31;;;;;;;5.78;2.97;;;22.20;99.90;;;;;;2073541;28;20029;-70
2022/08/04 05:00:58;;;;;;;9.10;3.40;;;22.20;99.90;;;;;;2077090;28;20040;-70
2022/08/04 05:02:25;;;;;;;7.70;3.45;;;22.20;99.90;;;;;;2072381;28;20470;-70
2022/08/04 05:03:52;;;;;;;8.68;2.90;;;22.20;99.90;;;;;;2074651;28;20037;-70
2022/08/04 05:05:02;;;;;;;4.32;2.95;;;22.20;99.90;;;;;;2071131;28;20103;-71
2022/08/04 05:06:30;;;;;;;4.05;2.75;;;22.30;99.90;;;;;;2072436;28;20496;-71
2022/08/04 05:08:01;;;;;;;8.02;3.42;;;22.30;99.90;;;;;;2074448;28;20033;-71
2022/08/04 05:09:07;;;;;;;6.95;3.15;;;22.40;99.90;;;;;;2071997;28;20014;-71
2022/08/04 05:10:29;;;;;;;4.57;2.80;;;22.50;99.90;;;;;;2076206;28;20147;-71
2022/08/04 05:12:00;;;;;;;5.68;2.65;;;22.50;99.90;;;;;;2075984;28;20401;-71
2022/08/04 05:13:21;;;;;;;3.95;2.83;;;22.60;99.90;;;;;;2074359;28;20033;-71
2022/08/04 05:14:38;;;;;;;6.82;3.10;;;22.70;99.90;;;;;;2076665;28;20354;-71
2022/08/04 05:15:42;;;;;;;6.82;2.92;;;22.80;99.90;;;;;;2072219;28;20034;-71
2022/08/04 05:16:54;;;;;;;6.03;2.92;;;23.00;99.90;;;;;;2075052;28;20018;-71
2022/08/04 05:17:57;;;;;;;6.07;2.95;;;23.10;99.90;;;;;;2075930;28;20025;-71
2022/08/04 05:19:31;;;;;;;10.43;3.17;;;23.10;99.90;;;;;;2086447;28;20111;-71
2022/08/04 05:20:42;;;;;;;3.60;2.33;;;23.20;99.90;;;;;;2080595;28;20540;-71
2022/08/04 05:21:47;;;;;;;8.82;2.75;;;23.30;99.90;;;;;;2070692;28;20584;-71
2022/08/04 05:22:59;;;;;;;4.25;2.88;;;23.40;99.90;;;;;;2073918;28;20048;-71
2022/08/04 05:24:05;;;;;;;5.85;2.78;;;23.50;99.90;;;;;;2073754;28;20478;-71
2022/08/04 05:25:21;;;;;;;4.93;2.60;;;23.50;99.90;;;;;;2074113;28;20025;-71
2022/08/04 05:26:26;;;;;;;5.05;2.90;;;23.60;99.90;;;;;;2071429;28;20037;-71
2022/08/04 05:27:40;;;;;;;4.82;2.90;;;23.70;99.90;;;;;;2074642;28;20026;-71
2022/08/04 05:28:44;;;;;;;5.38;3.28;;;23.80;99.90;;;;;;2075771;28;20018;-71
2022/08/04 05:29:51;;;;;;;6.45;3.13;;;23.80;99.90;;;;;;2071733;28;20539;-71
2022/08/04 05:31:37;;;;;;;8.25;3.28;;;23.90;99.90;;;;;;2074159;28;20025;-71
2022/08/04 05:32:45;;;;;;;6.45;2.53;;;23.90;99.90;;;;;;2069641;28;20060;-71
2022/08/04 05:33:59;;;;;;;3.75;2.78;;;23.90;99.90;;;;;;2072402;28;20092;-71
2022/08/04 05:35:06;;;;;;;7.15;3.30;;;24.00;99.90;;;;;;2073003;28;20481;-71
2022/08/04 05:36:12;;;;;;;5.00;2.58;;;24.10;99.90;;;;;;2071222;28;20061;-70
2022/08/04 05:37:19;;;;;;;8.85;2.90;;;24.20;99.90;;;;;;2072741;28;20025;-70
2022/08/04 05:38:23;;;;;;;7.20;3.00;;;24.30;99.90;;;;;;2074617;28;20026;-70
2022/08/04 05:39:28;;;;;;;5.82;3.00;;;24.40;99.90;;;;;;2073824;28;20025;-71
2022/08/04 05:40:28;;;;;;;2.95;2.65;;;24.50;99.90;;;;;;2073612;28;20022;-71
2022/08/04 05:41:32;;;;;;;3.60;2.50;;;24.60;99.90;;;;;;2073191;28;20102;-71
2022/08/04 05:42:36;;;;;;;4.53;2.80;;;24.70;99.90;;;;;;2072188;28;20033;-71
2022/08/04 05:43:40;;;;;;;5.57;2.80;;;24.80;99.90;;;;;;2072818;28;20080;-71
2022/08/04 05:44:42;;;;;;;5.80;2.70;;;24.90;99.90;;;;;;2074084;28;20065;-71
2022/08/04 05:45:47;;;;;;;6.43;2.63;;;25.00;99.90;;;;;;2071910;28;20029;-71
2022/08/04 05:46:50;;;;;;;6.00;2.70;;;25.10;99.90;;;;;;2076080;28;20053;-71
2022/08/04 05:47:52;;;;;;;5.88;2.90;;;25.20;99.90;;;;;;2071986;28;20034;-71
2022/08/04 05:48:53;;;;;;;5.15;3.45;;;25.20;99.90;;;;;;2073070;28;20088;-71
2022/08/04 05:49:55;;;;;;;7.57;3.20;;;25.30;99.90;;;;;;2073595;28;20451;-71
2022/08/04 05:51:00;;;;;;;6.53;2.80;;;25.40;99.90;;;;;;2072198;28;20021;-71
2022/08/04 05:52:02;;;;;;;6.13;2.78;;;25.50;99.90;;;;;;2073591;28;20103;-71
2022/08/04 05:53:04;;;;;;;6.82;2.80;;;25.60;99.90;;;;;;2075159;28;20104;-71
2022/08/04 05:54:05;;;;;;;5.15;2.72;;;25.70;99.90;;;;;;2072878;28;20415;-71
2022/08/04 05:55:08;;;;;;;6.70;2.60;;;25.80;99.90;;;;;;2074874;28;20030;-71
2022/08/04 05:56:10;;;;;;;3.60;2.50;;;25.90;99.90;;;;;;2074884;28;20058;-71
2022/08/04 05:57:12;;;;;;;5.72;2.58;;;26.00;99.90;;;;;;2075202;28;20478;-71
2022/08/04 05:58:15;;;;;;;4.20;2.67;;;26.10;99.90;;;;;;2074505;28;20034;-71
2022/08/04 05:59:18;;;;;;;8.75;3.22;;;26.20;99.90;;;;;;2073787;28;20021;-71
2022/08/04 06:00:19;;;;;;;4.63;2.75;;;26.30;99.90;;;;;;2074472;28;20076;-71
2022/08/04 06:01:22;;;;;;;5.05;2.42;;;26.40;99.90;;;;;;2074434;28;20543;-71
2022/08/04 06:02:24;;;;;;;7.25;2.88;;;26.50;99.90;;;;;;2073756;28;20027;-71
2022/08/04 06:03:26;;;;;;;3.40;2.65;;;26.50;99.90;;;;;;2077067;28;20049;-71
2022/08/04 06:04:34;;;;;;;5.20;2.80;;;26.60;99.90;;;;;;2075865;28;20018;-71
2022/08/04 06:05:35;;;;;;;4.38;2.63;;;26.70;99.90;;;;;;2076892;28;20041;-71
2022/08/04 06:06:37;;;;;;;5.82;2.45;;;26.80;99.90;;;;;;2074952;28;20018;-71
2022/08/04 06:07:38;;;;;;;3.40;2.35;;;26.80;99.90;;;;;;2074614;28;20041;-71
2022/08/04 06:08:39;;;;;;;9.85;2.67;;;26.90;99.90;;;;;;2074537;28;20096;-71
2022/08/04 06:09:40;;;;;;;6.55;2.78;;;27.00;99.90;;;;;;2077171;28;20543;-71
2022/08/04 06:10:43;;;;;;;5.60;2.65;;;27.10;99.90;;;;;;2073949;28;20537;-71
2022/08/04 06:11:45;;;;;;;4.13;2.75;;;27.20;99.90;;;;;;2076737;28;20037;-71
2022/08/04 06:12:51;;;;;;;5.80;2.95;;;27.30;99.90;;;;;;2075641;28;20442;-71
2022/08/04 06:14:00;;;;;;;5.65;2.67;;;27.40;99.90;;;;;;2074667;28;20033;-71
2022/08/04 06:15:01;;;;;;;6.95;2.72;;;27.40;99.90;;;;;;2074616;28;20029;-71
2022/08/04 06:16:05;;;;;;;3.22;2.17;;;27.50;99.90;;;;;;2073446;28;20032;-71
2022/08/04 06:17:07;;;;;;;6.47;3.15;;;27.50;99.90;;;;;;2074290;28;20029;-71